createdAt,value
2017-11-21T00:00:57.338Z,4.73
2017-11-21T00:03:24.841Z,5.73
2017-11-21T00:05:52.332Z,5.63
2017-11-21T00:08:19.912Z,3.40
2017-11-21T00:10:47.408Z,3.07
2017-11-21T00:13:14.924Z,4.30
2017-11-21T00:15:42.585Z,4.03
2017-11-21T00:18:10.098Z,4.10
2017-11-21T00:20:37.825Z,4.20
2017-11-21T00:23:05.464Z,3.80
2017-11-21T00:25:32.969Z,4.93
2017-11-21T00:28:00.467Z,3.50
2017-11-21T00:30:28.049Z,3.70
2017-11-21T00:32:55.565Z,3.20
2017-11-21T00:35:23.064Z,8.80
2017-11-21T00:37:50.737Z,3.60
2017-11-21T00:40:18.243Z,4.80
2017-11-21T00:42:45.745Z,3.30
2017-11-21T00:45:13.293Z,4.10
2017-11-21T00:47:40.792Z,3.03
2017-11-21T00:50:09.055Z,2.67
2017-11-21T00:52:37.376Z,5.57
2017-11-21T00:55:04.878Z,5.20
2017-11-21T00:57:32.396Z,4.17
2017-11-21T01:00:00.036Z,4.13
2017-11-21T01:02:27.555Z,3.90
2017-11-21T01:04:55.069Z,4.60
2017-11-21T01:07:23.247Z,2.80
2017-11-21T01:09:50.527Z,2.33
2017-11-21T01:12:18.020Z,4.40
2017-11-21T01:14:45.590Z,3.00
2017-11-21T01:17:13.143Z,4.37
2017-11-21T01:19:40.656Z,3.07
2017-11-21T01:22:08.221Z,3.50
2017-11-21T01:24:35.736Z,2.90
2017-11-21T01:27:03.227Z,2.10
2017-11-21T01:29:30.790Z,2.80
2017-11-21T01:31:58.287Z,4.17
2017-11-21T01:34:26.552Z,2.67
2017-11-21T01:36:54.108Z,2.60
2017-11-21T01:39:21.619Z,2.83
2017-11-21T01:41:49.120Z,1.80
2017-11-21T01:44:16.661Z,2.50
2017-11-21T01:46:44.208Z,3.20
2017-11-21T01:49:11.716Z,2.30
2017-11-21T01:51:39.506Z,2.60
2017-11-21T01:54:07.003Z,3.43
2017-11-21T01:56:34.501Z,3.07
2017-11-21T01:59:02.828Z,2.80
2017-11-21T02:01:30.332Z,2.90
2017-11-21T02:03:57.836Z,2.87
2017-11-21T02:06:25.368Z,2.07
2017-11-21T02:08:52.888Z,2.47
2017-11-21T02:11:20.487Z,2.40
2017-11-21T02:13:48.002Z,3.30
2017-11-21T02:16:15.499Z,2.63
2017-11-21T02:18:43.791Z,4.00
2017-11-21T02:21:11.401Z,3.00
2017-11-21T02:23:38.909Z,5.13
2017-11-21T02:26:06.488Z,3.63
2017-11-21T02:28:33.988Z,3.10
2017-11-21T02:31:01.485Z,2.20
2017-11-21T02:33:29.149Z,2.83
2017-11-21T02:35:56.685Z,2.37
2017-11-21T02:38:24.183Z,4.30
2017-11-21T02:40:51.833Z,2.90
2017-11-21T02:43:19.356Z,3.37
2017-11-21T02:45:46.869Z,10.07
2017-11-21T02:48:14.745Z,3.00
2017-11-21T02:50:43.007Z,3.73
2017-11-21T02:53:10.508Z,2.50
2017-11-21T02:55:38.052Z,2.10
2017-11-21T02:58:05.930Z,2.60
2017-11-21T03:00:33.436Z,2.63
2017-11-21T03:03:00.979Z,2.80
2017-11-21T03:05:28.484Z,3.73
2017-11-21T03:07:55.996Z,3.00
2017-11-21T03:10:24.020Z,2.93
2017-11-21T03:12:51.919Z,3.73
2017-11-21T03:15:19.455Z,3.57
2017-11-21T03:17:46.989Z,3.37
2017-11-21T03:20:26.812Z,4.17
2017-11-21T03:23:06.101Z,2.40
2017-11-21T03:39:00.130Z,2.80
2017-11-21T03:41:27.671Z,2.90
2017-11-21T03:43:55.177Z,9.80
2017-11-21T03:46:22.725Z,3.13
2017-11-21T03:48:50.502Z,2.23
2017-11-21T03:51:18.007Z,3.67
2017-11-21T03:53:45.530Z,2.30
2017-11-21T03:56:13.083Z,3.10
2017-11-21T03:58:40.584Z,3.50
2017-11-21T04:01:08.082Z,3.33
2017-11-21T04:03:35.628Z,3.73
2017-11-21T04:06:03.557Z,3.43
2017-11-21T04:08:31.061Z,2.43
2017-11-21T04:10:58.719Z,4.20
2017-11-21T04:13:26.996Z,4.10
2017-11-21T04:15:54.495Z,3.03
2017-11-21T04:18:22.056Z,2.83
2017-11-21T04:20:49.661Z,2.83
2017-11-21T04:23:17.165Z,4.73
2017-11-21T04:25:44.861Z,2.53
2017-11-21T04:28:12.377Z,3.23
2017-11-21T04:30:40.101Z,3.90
2017-11-21T04:33:07.776Z,2.20
2017-11-21T04:35:35.275Z,2.43
2017-11-21T04:38:02.767Z,2.83
2017-11-21T04:40:30.308Z,2.30
2017-11-21T04:42:57.820Z,2.27
2017-11-21T04:45:25.320Z,2.03
2017-11-21T04:47:52.894Z,2.73
2017-11-21T04:50:21.845Z,2.10
2017-11-21T04:52:49.353Z,2.13
2017-11-21T04:55:17.081Z,2.80
2017-11-21T04:57:44.593Z,1.93
2017-11-21T05:00:12.090Z,3.10
2017-11-21T05:02:39.734Z,2.53
2017-11-21T05:05:07.439Z,2.23
2017-11-21T05:07:34.960Z,2.07
2017-11-21T05:10:02.509Z,2.03
2017-11-21T05:12:30.009Z,2.30
2017-11-21T05:14:57.519Z,1.90
2017-11-21T05:17:25.075Z,2.50
2017-11-21T05:19:52.581Z,1.80
2017-11-21T05:22:20.101Z,2.53
2017-11-21T05:24:47.656Z,2.30
2017-11-21T05:27:15.152Z,2.20
2017-11-21T05:29:42.652Z,2.17
2017-11-21T05:32:13.245Z,2.47
2017-11-21T05:34:40.755Z,2.70
2017-11-21T05:37:08.249Z,2.87
2017-11-21T05:39:35.890Z,3.27
2017-11-21T05:42:03.387Z,2.47
2017-11-21T05:44:30.900Z,2.00
2017-11-21T05:46:58.556Z,1.83
2017-11-21T05:49:26.060Z,2.33
2017-11-21T05:51:54.328Z,1.80
2017-11-21T05:54:21.887Z,1.80
2017-11-21T05:56:49.404Z,2.57
2017-11-21T05:59:16.910Z,3.10
2017-11-21T06:01:44.708Z,6.30
2017-11-21T06:04:12.223Z,3.10
2017-11-21T06:06:39.755Z,4.73
2017-11-21T06:09:07.348Z,4.13
2017-11-21T06:11:34.855Z,2.37
2017-11-21T06:14:03.128Z,4.40
2017-11-21T06:16:31.733Z,7.10
2017-11-21T06:18:59.536Z,3.20
2017-11-21T06:21:27.043Z,2.60
2017-11-21T06:23:54.596Z,2.57
2017-11-21T06:26:22.099Z,1.97
2017-11-21T06:28:49.812Z,2.33
2017-11-21T06:31:17.695Z,1.87
2017-11-21T06:33:45.196Z,1.60
2017-11-21T06:36:13.478Z,1.73
2017-11-21T06:38:41.031Z,2.23
2017-11-21T06:41:08.531Z,2.13
2017-11-21T06:43:36.252Z,1.70
2017-11-21T06:46:03.807Z,2.43
2017-11-21T06:48:31.316Z,2.00
2017-11-21T06:50:58.808Z,1.93
2017-11-21T06:53:26.220Z,2.33
2017-11-21T06:55:54.119Z,2.23
2017-11-21T06:58:21.648Z,2.10
2017-11-21T07:00:49.188Z,1.63
2017-11-21T07:03:16.696Z,2.03
2017-11-21T07:05:44.195Z,1.80
2017-11-21T07:08:11.850Z,1.70
2017-11-21T07:10:39.359Z,2.20
2017-11-21T07:13:06.865Z,2.30
2017-11-21T07:15:34.426Z,1.90
2017-11-21T07:18:02.108Z,3.30
2017-11-21T07:20:30.440Z,2.03
2017-11-21T07:22:58.115Z,1.77
2017-11-21T07:25:25.615Z,1.83
2017-11-21T07:27:53.111Z,3.43
2017-11-21T07:30:20.732Z,2.23
2017-11-21T07:32:48.238Z,2.30
2017-11-21T07:35:15.565Z,3.20
2017-11-21T07:37:43.069Z,2.63
2017-11-21T07:40:10.571Z,2.47
2017-11-21T07:42:38.120Z,2.53
2017-11-21T07:45:06.385Z,3.17
2017-11-21T07:47:34.652Z,1.70
2017-11-21T07:50:02.213Z,2.00
2017-11-21T07:52:29.727Z,3.10
2017-11-21T07:54:57.224Z,2.77
2017-11-21T07:57:24.805Z,1.80
2017-11-21T07:59:52.310Z,2.27
2017-11-21T08:02:19.811Z,3.60
2017-11-21T08:04:47.361Z,5.93
2017-11-21T08:07:15.220Z,2.10
2017-11-21T08:09:42.726Z,1.93
2017-11-21T08:12:10.300Z,3.47
2017-11-21T08:14:37.803Z,2.57
2017-11-21T08:17:05.307Z,4.80
2017-11-21T08:19:32.869Z,2.40
2017-11-21T08:22:00.369Z,6.07
2017-11-21T08:24:27.879Z,4.13
2017-11-21T08:26:55.437Z,4.80
2017-11-21T08:29:22.936Z,3.60
2017-11-21T08:31:50.435Z,3.03
2017-11-21T08:34:17.992Z,2.80
2017-11-21T08:36:46.264Z,2.80
2017-11-21T08:39:13.767Z,4.03
2017-11-21T08:41:41.299Z,2.97
2017-11-21T08:44:08.800Z,3.50
2017-11-21T08:46:36.304Z,3.20
2017-11-21T08:49:05.268Z,2.53
2017-11-21T08:51:32.781Z,4.53
2017-11-21T08:54:00.276Z,5.53
2017-11-21T08:56:27.843Z,4.30
2017-11-21T08:58:55.340Z,5.10
2017-11-21T09:01:22.835Z,7.43
2017-11-21T09:03:50.388Z,17.93
2017-11-21T09:06:17.888Z,4.03
2017-11-21T09:08:45.393Z,5.60
2017-11-21T09:11:12.959Z,5.97
2017-11-21T09:13:40.456Z,3.77
2017-11-21T09:16:07.957Z,10.13
2017-11-21T09:18:35.509Z,5.20
2017-11-21T09:21:03.783Z,9.03
2017-11-21T09:23:31.313Z,6.87
2017-11-21T09:25:58.868Z,7.57
2017-11-21T09:28:26.376Z,6.00
2017-11-21T09:30:53.880Z,8.20
2017-11-21T09:33:21.436Z,6.20
2017-11-21T09:35:48.941Z,3.40
2017-11-21T09:38:17.205Z,4.80
2017-11-21T09:40:45.540Z,9.90
2017-11-21T09:43:13.036Z,5.43
2017-11-21T09:45:40.531Z,3.90
2017-11-21T09:48:08.081Z,4.47
2017-11-21T09:50:35.594Z,5.00
2017-11-21T09:53:03.090Z,5.90
2017-11-21T09:55:30.700Z,6.57
2017-11-21T09:57:57.963Z,12.40
2017-11-21T10:00:25.544Z,4.93
2017-11-21T10:02:53.109Z,6.23
2017-11-21T10:05:20.612Z,3.40
2017-11-21T10:07:48.107Z,4.00
2017-11-21T10:10:15.665Z,3.47
2017-11-21T10:12:43.163Z,4.60
2017-11-21T10:15:10.663Z,10.20
2017-11-21T10:17:38.227Z,7.50
2017-11-21T10:20:05.741Z,7.30
2017-11-21T10:22:33.236Z,4.23
2017-11-21T10:25:00.772Z,4.07
2017-11-21T10:27:28.280Z,8.10
2017-11-21T10:29:55.824Z,5.87
2017-11-21T10:32:23.368Z,6.77
2017-11-21T10:34:50.867Z,6.10
2017-11-21T10:37:18.359Z,4.30
2017-11-21T10:39:45.907Z,5.30
2017-11-21T10:42:13.439Z,5.20
2017-11-21T10:44:41.031Z,7.67
2017-11-21T10:47:08.897Z,14.70
2017-11-21T10:49:36.396Z,6.40
2017-11-21T10:52:03.957Z,5.73
2017-11-21T10:54:31.464Z,5.27
2017-11-21T10:56:58.968Z,4.87
2017-11-21T10:59:26.529Z,4.60
2017-11-21T11:01:54.030Z,5.70
2017-11-21T11:04:21.526Z,3.70
2017-11-21T11:06:49.289Z,6.10
2017-11-21T11:09:16.868Z,6.20
2017-11-21T11:11:44.390Z,6.60
2017-11-21T11:14:11.988Z,6.77
2017-11-21T11:16:39.511Z,5.77
2017-11-21T11:19:07.060Z,8.00
2017-11-21T11:21:35.253Z,9.63
2017-11-21T11:24:02.762Z,9.30
2017-11-21T11:26:30.523Z,7.03
2017-11-21T11:28:58.174Z,7.50
2017-11-21T11:31:25.819Z,9.10
2017-11-21T11:33:53.332Z,4.67
2017-11-21T11:36:20.907Z,6.67
2017-11-21T11:38:48.403Z,4.33
2017-11-21T11:41:15.903Z,11.87
2017-11-21T11:43:43.464Z,4.77
2017-11-21T11:46:10.968Z,8.20
2017-11-21T11:48:39.476Z,9.43
2017-11-21T11:51:08.514Z,4.40
2017-11-21T11:53:37.659Z,6.07
2017-11-21T11:56:05.254Z,8.27
2017-11-21T11:58:32.773Z,4.20
2017-11-21T12:01:00.272Z,3.90
2017-11-21T12:03:28.172Z,3.30
2017-11-21T12:05:55.672Z,4.97
2017-11-21T12:08:23.185Z,6.10
2017-11-21T12:10:50.738Z,6.83
2017-11-21T12:13:18.244Z,5.43
2017-11-21T12:15:45.752Z,10.37
2017-11-21T12:18:13.311Z,10.00
2017-11-21T12:20:40.822Z,4.00
2017-11-21T12:23:08.349Z,95.10
2017-11-21T12:25:35.896Z,38.50
2017-11-21T12:28:03.431Z,7.67
2017-11-21T12:30:31.702Z,6.20
2017-11-21T12:32:59.383Z,6.07
2017-11-21T12:35:27.743Z,6.93
2017-11-21T12:37:55.452Z,6.80
2017-11-21T12:40:22.972Z,6.00
2017-11-21T12:42:51.292Z,5.90
2017-11-21T12:45:18.623Z,7.63
2017-11-21T12:47:46.288Z,9.90
2017-11-21T12:50:13.868Z,7.90
2017-11-21T12:52:41.816Z,6.33
2017-11-21T12:55:09.436Z,8.10
2017-11-21T12:57:36.948Z,9.67
2017-11-21T13:00:04.521Z,8.37
2017-11-21T13:02:32.028Z,6.10
2017-11-21T13:04:59.957Z,6.40
2017-11-21T13:07:27.658Z,10.50
2017-11-21T13:09:55.163Z,5.90
2017-11-21T13:12:22.667Z,6.63
2017-11-21T13:14:50.242Z,5.73
2017-11-21T13:17:18.524Z,11.33
2017-11-21T13:19:46.796Z,6.10
2017-11-21T13:22:15.111Z,4.80
2017-11-21T13:24:42.613Z,9.17
2017-11-21T13:27:10.122Z,8.23
2017-11-21T13:29:37.699Z,8.30
2017-11-21T13:32:05.220Z,6.97
2017-11-21T13:34:32.724Z,6.20
2017-11-21T13:37:00.619Z,4.30
2017-11-21T13:39:28.124Z,4.20
2017-11-21T13:41:55.931Z,5.17
2017-11-21T13:44:23.549Z,4.23
2017-11-21T13:46:50.820Z,5.70
2017-11-21T13:49:18.339Z,19.17
2017-11-21T13:51:46.673Z,8.97
2017-11-21T13:54:14.396Z,24.30
2017-11-21T13:56:41.941Z,16.43
2017-11-21T13:59:09.611Z,5.00
2017-11-21T14:01:37.567Z,7.17
2017-11-21T14:04:05.068Z,6.40
2017-11-21T14:06:32.603Z,3.70
2017-11-21T14:09:00.161Z,8.17
2017-11-21T14:11:27.680Z,5.80
2017-11-21T14:13:55.184Z,5.00
2017-11-21T14:16:22.740Z,6.70
2017-11-21T14:18:50.260Z,5.30
2017-11-21T14:21:17.759Z,6.70
2017-11-21T14:23:45.311Z,5.60
2017-11-21T14:26:12.820Z,4.50
2017-11-21T14:28:40.324Z,4.43
2017-11-21T14:31:07.875Z,6.70
2017-11-21T14:33:35.376Z,9.50
2017-11-21T14:36:02.883Z,8.77
2017-11-21T14:38:32.040Z,8.10
2017-11-21T14:41:00.320Z,13.83
2017-11-21T14:43:27.604Z,16.13
2017-11-21T14:45:55.247Z,20.43
2017-11-21T14:48:22.832Z,21.17
2017-11-21T14:50:51.120Z,14.23
2017-11-21T14:53:18.660Z,10.47
2017-11-21T14:55:46.371Z,14.30
2017-11-21T14:58:13.872Z,9.30
2017-11-21T15:00:41.532Z,9.60
2017-11-21T15:03:09.081Z,7.77
2017-11-21T15:05:36.441Z,7.00
2017-11-21T15:08:03.948Z,6.67
2017-11-21T15:10:31.459Z,9.37
2017-11-21T15:12:59.637Z,4.50
2017-11-21T15:15:27.908Z,11.23
2017-11-21T15:17:55.504Z,14.43
2017-11-21T15:20:23.690Z,6.00
2017-11-21T15:22:51.947Z,28.97
2017-11-21T15:25:21.113Z,7.13
2017-11-21T15:27:48.664Z,6.80
2017-11-21T15:30:16.176Z,10.40
2017-11-21T15:32:44.369Z,11.20
2017-11-21T15:35:12.808Z,5.47
2017-11-21T15:37:41.071Z,7.77
2017-11-21T15:40:09.601Z,5.43
2017-11-21T15:42:37.901Z,7.73
2017-11-21T15:45:05.848Z,8.03
2017-11-21T15:47:33.442Z,5.47
2017-11-21T15:50:00.950Z,8.23
2017-11-21T15:52:29.225Z,13.33
2017-11-21T15:54:57.340Z,8.63
2017-11-21T15:57:25.600Z,26.73
2017-11-21T15:59:53.880Z,24.53
2017-11-21T16:02:21.629Z,16.00
2017-11-21T16:04:49.140Z,9.90
2017-11-21T16:07:16.911Z,7.27
2017-11-21T16:09:44.536Z,11.47
2017-11-21T16:12:12.124Z,11.43
2017-11-21T16:14:39.631Z,10.77
2017-11-21T16:17:07.159Z,20.13
2017-11-21T16:19:34.804Z,35.90
2017-11-21T16:22:02.313Z,38.50
2017-11-21T16:24:29.929Z,65.53
2017-11-21T16:26:57.541Z,76.20
2017-11-21T16:29:25.152Z,53.50
2017-11-21T16:31:52.724Z,28.53
2017-11-21T16:34:20.831Z,27.60
2017-11-21T16:36:48.373Z,29.80
2017-11-21T16:39:16.007Z,20.00
2017-11-21T16:41:43.684Z,26.53
2017-11-21T16:44:11.363Z,33.20
2017-11-21T16:46:38.868Z,15.50
2017-11-21T16:49:06.777Z,18.47
2017-11-21T16:51:34.390Z,14.80
2017-11-21T16:54:01.921Z,61.63
2017-11-21T16:56:29.595Z,58.97
2017-11-21T16:58:57.119Z,47.60
2017-11-21T17:01:25.311Z,28.27
2017-11-21T17:03:52.825Z,33.03
2017-11-21T17:06:20.395Z,45.83
2017-11-21T17:08:47.925Z,68.70
2017-11-21T17:11:15.514Z,86.13
2017-11-21T17:13:43.036Z,99.60
2017-11-21T17:16:10.544Z,63.07
2017-11-21T17:18:39.056Z,63.67
2017-11-21T17:21:06.716Z,42.50
2017-11-21T17:23:34.455Z,27.03
2017-11-21T17:26:02.013Z,34.53
2017-11-21T17:28:30.284Z,23.50
2017-11-21T17:30:58.695Z,21.80
2017-11-21T17:33:27.008Z,21.37
2017-11-21T17:35:54.739Z,30.80
2017-11-21T17:38:22.271Z,26.23
2017-11-21T17:40:49.835Z,71.60
2017-11-21T17:43:18.241Z,125.43
2017-11-21T17:45:45.752Z,91.57
2017-11-21T17:48:13.332Z,130.93
2017-11-21T17:50:41.057Z,61.87
2017-11-21T17:53:08.575Z,52.43
2017-11-21T17:55:36.148Z,46.87
2017-11-21T17:58:03.684Z,20.27
2017-11-21T18:00:31.261Z,21.93
2017-11-21T18:02:58.909Z,22.17
2017-11-21T18:05:26.410Z,22.43
2017-11-21T18:07:54.078Z,25.43
2017-11-21T18:10:21.752Z,18.90
2017-11-21T18:12:49.683Z,28.57
2017-11-21T18:15:17.191Z,21.50
2017-11-21T18:17:45.718Z,24.53
2017-11-21T18:20:13.233Z,28.57
2017-11-21T18:22:40.740Z,44.10
2017-11-21T18:25:08.317Z,46.37
2017-11-21T18:27:35.881Z,51.17
2017-11-21T18:30:03.400Z,45.77
2017-11-21T18:32:31.343Z,33.30
2017-11-21T18:34:59.695Z,16.70
2017-11-21T18:37:27.256Z,16.47
2017-11-21T18:39:54.804Z,15.10
2017-11-21T18:42:22.314Z,19.43
2017-11-21T18:44:49.864Z,29.50
2017-11-21T18:47:18.189Z,20.47
2017-11-21T18:49:45.716Z,25.33
2017-11-21T18:52:13.229Z,24.40
2017-11-21T18:54:40.865Z,27.90
2017-11-21T18:57:08.371Z,26.67
2017-11-21T18:59:35.880Z,28.73
2017-11-21T19:02:04.063Z,20.53
2017-11-21T19:04:31.574Z,23.77
2017-11-21T19:06:59.084Z,24.20
2017-11-21T19:09:26.660Z,29.23
2017-11-21T19:11:54.744Z,24.43
2017-11-21T19:14:22.372Z,27.47
2017-11-21T19:16:50.005Z,28.97
2017-11-21T19:19:17.548Z,28.10
2017-11-21T19:21:45.253Z,28.40
2017-11-21T19:24:12.987Z,32.27
2017-11-21T19:26:40.568Z,34.33
2017-11-21T19:29:08.553Z,36.20
2017-11-21T19:31:36.124Z,37.00
2017-11-21T19:34:03.723Z,33.60
2017-11-21T19:36:32.020Z,31.87
2017-11-21T19:38:59.547Z,32.40
2017-11-21T19:41:27.108Z,34.20
2017-11-21T19:43:55.380Z,39.63
2017-11-21T19:46:22.884Z,35.27
2017-11-21T19:48:50.788Z,42.30
2017-11-21T19:51:18.298Z,45.20
2017-11-21T19:53:45.809Z,35.57
2017-11-21T19:56:13.364Z,43.23
2017-11-21T19:58:41.008Z,43.03
2017-11-21T20:01:08.513Z,46.97
2017-11-21T20:03:36.093Z,45.37
2017-11-21T20:06:03.611Z,55.40
2017-11-21T20:08:31.111Z,58.80
2017-11-21T20:10:58.675Z,57.07
2017-11-21T20:13:26.255Z,56.33
2017-11-21T20:15:53.844Z,64.87
2017-11-21T20:18:21.353Z,65.80
2017-11-21T20:20:48.995Z,65.37
2017-11-21T20:23:16.571Z,79.00
2017-11-21T20:25:44.255Z,74.57
2017-11-21T20:28:12.057Z,74.43
2017-11-21T20:30:39.571Z,99.03
2017-11-21T20:33:07.072Z,95.20
2017-11-21T20:35:34.629Z,100.63
2017-11-21T20:38:02.148Z,104.17
2017-11-21T20:40:29.647Z,89.57
2017-11-21T20:42:57.229Z,80.33
2017-11-21T20:45:25.495Z,71.93
2017-11-21T20:47:52.993Z,84.07
2017-11-21T20:50:20.536Z,91.80
2017-11-21T20:52:48.051Z,109.30
2017-11-21T20:55:15.565Z,126.03
2017-11-21T20:57:43.128Z,138.03
2017-11-21T21:00:10.643Z,186.50
2017-11-21T21:02:38.159Z,178.53
2017-11-21T21:05:05.853Z,149.40
2017-11-21T21:07:33.367Z,119.23
2017-11-21T21:10:01.162Z,124.17
2017-11-21T21:12:28.678Z,138.47
2017-11-21T21:14:56.235Z,125.83
2017-11-21T21:17:23.787Z,140.13
2017-11-21T21:19:51.296Z,121.80
2017-11-21T21:22:18.889Z,128.73
2017-11-21T21:24:46.673Z,141.20
2017-11-21T21:27:26.656Z,128.20
2017-11-21T21:29:54.159Z,128.37
2017-11-21T21:32:21.670Z,127.50
2017-11-21T21:34:49.215Z,112.13
2017-11-21T21:37:16.728Z,114.07
2017-11-21T21:39:44.235Z,118.27
2017-11-21T21:42:11.792Z,112.50
2017-11-21T21:44:39.308Z,125.47
2017-11-21T21:47:06.816Z,144.20
2017-11-21T21:49:34.355Z,109.47
2017-11-21T21:52:02.632Z,104.87
2017-11-21T21:54:30.904Z,133.93
2017-11-21T21:56:58.623Z,144.67
2017-11-21T21:59:26.898Z,126.60
2017-11-21T22:01:54.635Z,108.60
2017-11-21T22:04:22.187Z,94.80
2017-11-21T22:09:43.761Z,93.33
2017-11-21T22:12:11.941Z,70.17
2017-11-21T22:14:40.167Z,61.10
2017-11-21T22:17:08.561Z,55.97
2017-11-21T22:19:36.088Z,68.83
2017-11-21T22:22:03.665Z,51.43
2017-11-21T22:24:32.591Z,54.47
2017-11-21T22:27:00.785Z,50.53
2017-11-21T22:29:29.020Z,44.43
2017-11-21T22:31:56.532Z,48.57
2017-11-21T22:34:24.040Z,55.03
2017-11-21T22:36:52.276Z,46.93
2017-11-21T22:39:20.596Z,68.93
2017-11-21T22:41:48.748Z,44.20
2017-11-21T22:44:16.308Z,43.37
2017-11-21T22:46:44.103Z,51.63
2017-11-21T22:49:11.896Z,43.47
2017-11-21T22:51:39.520Z,34.90
2017-11-21T22:54:07.030Z,34.97
2017-11-21T22:56:36.052Z,41.73
2017-11-21T22:59:05.086Z,39.17
2017-11-21T23:01:32.601Z,41.63
2017-11-21T23:04:00.112Z,42.87
2017-11-21T23:06:27.900Z,35.77
2017-11-21T23:08:55.416Z,36.37
2017-11-21T23:11:23.556Z,43.77
2017-11-21T23:13:51.551Z,41.87
2017-11-21T23:16:19.065Z,40.20
2017-11-21T23:18:47.364Z,32.43
2017-11-21T23:21:14.931Z,45.17
2017-11-21T23:23:42.449Z,38.03
2017-11-21T23:26:10.796Z,39.87
2017-11-21T23:28:38.348Z,36.67
2017-11-21T23:31:05.858Z,34.50
2017-11-21T23:33:33.360Z,39.73
2017-11-21T23:36:00.917Z,38.67
2017-11-21T23:38:28.425Z,40.27
2017-11-21T23:40:55.937Z,39.80
2017-11-21T23:43:23.516Z,39.10
2017-11-21T23:45:51.274Z,35.77
2017-11-21T23:48:18.797Z,39.67
2017-11-21T23:50:46.364Z,30.63
2017-11-21T23:53:14.361Z,30.80
2017-11-21T23:55:41.869Z,31.80
2017-11-21T23:58:09.485Z,40.60
